SRQ weather

Sarasota Bradenton International Airport
Sarasota/Bradenton, Florida, United States

Public forecast

Using degrees Fahrenheit for public forecast. Weather courtesy of forecast.io.

METAR (pilot weather report)

Retrieved 2019/05/19 16:53 UTC (59 minutes ago):

KSRQ 191653Z 26009KT 10SM SCT050 31/21 A3002 RMK AO2 SLP164 T03110206

TAF (pilot weather forecast)

Retrieved 2019/05/19 12:30 UTC (5 hours ago):

TAF KSRQ 191127Z 1912/2012 10007KT P6SM SKC FM191400 14008KT P6SM FEW040 FM191800 26010KT P6SM FEW060 FM200200 VRB04KT P6SM SKC